If you wish to contribute or participate in the discussions about articles you are invited to join SKYbrary as a registered user

 Actions

Ástor Piazzola International Airport

From SKYbrary Wiki

SAZM
Airport
ICAO: SAZM – IATA: MDQ
Summary
Name Ástor Piazzola International Airport
Region South America and Caribbean
Territory Argentina AR.gif
Location Mar Del Plata, Buenos Aires
Serving Mar Del Plata
Elevation 21.946 m
72 ft
72 ft21.946 m
Type medium airport
Coordinates 37° 56' 3.00" S, 57° 34' 24.00" W
Runways
Designator Length Width Surface ROPS
13/31 2200 m7,217.848 ft
45 m147.638 ft
ASP yes/yes


METAR
Observation SAZM 171700Z 32016KT CAVOK 22/02 Q1003
Station Mar Del Plata Aerodrome
Date/Time 17 September 2019 17:00:00
Wind direction 320°
Wind speed 16 kts
Lowest cloud amount clouds and visibility OK
Temperature 22°C
Dew point 2°C
Humidity 26%
QNH 1003 hPa
Weather condition n/a

Maps

Terrain

Loading map...

Airport Layout

Loading map...


Accidents & Serious Incidents at or in vicinity of SAZM

None on SKYbrary